createdAt,value
2023-02-24T00:00:32.227Z,10.00
2023-02-24T00:01:13.951Z,10.00
2023-02-24T00:01:51.342Z,9.90
2023-02-24T00:02:23.146Z,9.90
2023-02-24T00:02:54.949Z,9.80
2023-02-24T00:03:27.883Z,9.80
2023-02-24T00:04:01.275Z,9.70
2023-02-24T00:04:34.742Z,9.70
2023-02-24T00:05:07.483Z,9.70
2023-02-24T00:05:42.670Z,9.70
2023-02-24T00:06:14.481Z,9.70
2023-02-24T00:06:46.964Z,9.70
2023-02-24T00:07:20.742Z,9.70
2023-02-24T00:07:52.624Z,9.60
2023-02-24T00:08:24.532Z,9.60
2023-02-24T00:08:57.300Z,9.60
2023-02-24T00:09:30.682Z,9.60
2023-02-24T00:10:02.773Z,9.60
2023-02-24T00:10:37.402Z,9.60
2023-02-24T00:11:13.489Z,9.60
2023-02-24T00:11:47.364Z,9.60
2023-02-24T00:12:20.868Z,9.50
2023-02-24T00:12:53.868Z,9.50
2023-02-24T00:13:25.712Z,9.50
2023-02-24T00:13:58.499Z,9.50
2023-02-24T00:14:33.115Z,9.50
2023-02-24T00:15:06.012Z,9.50
2023-02-24T00:15:38.839Z,9.50
2023-02-24T00:16:13.125Z,9.50
2023-02-24T00:16:46.774Z,9.50
2023-02-24T00:17:19.782Z,9.50
2023-02-24T00:17:51.732Z,9.50
2023-02-24T00:18:23.590Z,9.60
2023-02-24T00:18:56.378Z,9.60
2023-02-24T00:19:32.458Z,9.60
2023-02-24T00:20:06.958Z,9.60
2023-02-24T00:20:40.868Z,9.60
2023-02-24T00:21:15.428Z,9.60
2023-02-24T00:21:47.604Z,9.70
2023-02-24T00:22:20.378Z,9.70
2023-02-24T00:22:52.232Z,9.70
2023-02-24T00:23:24.227Z,9.70
2023-02-24T00:23:59.666Z,9.70
2023-02-24T00:24:32.273Z,9.80
2023-02-24T00:25:04.498Z,9.80
2023-02-24T00:25:37.269Z,9.80
2023-02-24T00:26:10.543Z,9.80
2023-02-24T00:26:42.781Z,9.80
2023-02-24T00:27:15.960Z,9.80
2023-02-24T00:27:47.758Z,9.70
2023-02-24T00:28:19.600Z,9.70
2023-02-24T00:28:52.384Z,9.70
2023-02-24T00:29:25.218Z,9.70
2023-02-24T00:29:57.308Z,9.70
2023-02-24T00:30:32.725Z,9.60
2023-02-24T00:31:05.824Z,9.60
2023-02-24T00:31:41.719Z,9.60
2023-02-24T00:32:14.844Z,9.60
2023-02-24T00:32:46.855Z,9.60
2023-02-24T00:33:22.432Z,9.60
2023-02-24T00:33:56.770Z,9.60
2023-02-24T00:34:30.867Z,9.60
2023-02-24T00:35:02.922Z,9.60
2023-02-24T00:35:35.056Z,9.60
2023-02-24T00:36:10.813Z,9.60
2023-02-24T00:36:42.860Z,9.60
2023-02-24T00:37:15.390Z,9.60
2023-02-24T00:37:51.200Z,9.60
2023-02-24T00:38:24.977Z,9.50
2023-02-24T00:38:58.638Z,9.50
2023-02-24T00:39:34.365Z,9.50
2023-02-24T00:40:11.142Z,9.40
2023-02-24T00:40:45.285Z,9.40
2023-02-24T00:41:22.408Z,9.40
2023-02-24T00:41:58.085Z,9.30
2023-02-24T00:42:29.926Z,9.30
2023-02-24T00:43:02.683Z,9.30
2023-02-24T00:43:37.219Z,9.30
2023-02-24T00:44:11.540Z,9.30
2023-02-24T00:44:46.062Z,9.30
2023-02-24T00:45:18.918Z,9.30
2023-02-24T00:45:51.674Z,9.30
2023-02-24T00:46:31.984Z,9.30
2023-02-24T00:47:08.678Z,9.30
2023-02-24T00:47:40.502Z,9.20
2023-02-24T00:48:12.436Z,9.20
2023-02-24T00:48:46.911Z,9.20
2023-02-24T00:49:20.657Z,9.10
2023-02-24T00:49:53.648Z,9.10
2023-02-24T00:50:26.585Z,9.10
2023-02-24T00:51:01.226Z,9.10
2023-02-24T00:51:36.419Z,9.00
2023-02-24T00:52:13.438Z,9.00
2023-02-24T00:52:45.263Z,9.00
2023-02-24T00:53:18.255Z,9.00
2023-02-24T00:53:51.368Z,9.00
2023-02-24T00:54:28.013Z,9.00
2023-02-24T00:54:59.890Z,8.90
2023-02-24T00:55:36.184Z,8.90
2023-02-24T00:56:11.978Z,8.90
2023-02-24T00:56:45.217Z,8.80
2023-02-24T00:57:18.365Z,8.80
2023-02-24T00:57:51.668Z,8.80
2023-02-24T00:58:23.582Z,8.80
2023-02-24T00:58:57.401Z,8.80
2023-02-24T00:59:30.390Z,8.80
2023-02-24T01:00:02.463Z,8.80
2023-02-24T01:00:36.540Z,8.80
2023-02-24T01:01:14.266Z,8.80
2023-02-24T01:01:49.528Z,8.80
2023-02-24T01:02:22.741Z,8.80
2023-02-24T01:02:54.595Z,8.80
2023-02-24T01:03:27.788Z,8.70
2023-02-24T01:04:01.526Z,8.70
2023-02-24T01:04:33.525Z,8.70
2023-02-24T01:05:07.101Z,8.70
2023-02-24T01:05:39.048Z,8.70
2023-02-24T01:06:12.209Z,8.60
2023-02-24T01:06:47.350Z,8.60
2023-02-24T01:07:19.334Z,8.60
2023-02-24T01:07:51.986Z,8.60
2023-02-24T01:08:24.986Z,8.60
2023-02-24T01:08:58.544Z,8.60
2023-02-24T01:09:31.876Z,8.70
2023-02-24T01:10:08.387Z,8.70
2023-02-24T01:10:40.545Z,8.70
2023-02-24T01:11:30.966Z,8.70
2023-02-24T01:12:38.244Z,8.80
2023-02-24T01:13:10.105Z,8.70
2023-02-24T01:13:41.938Z,8.70
2023-02-24T01:14:17.695Z,8.80
2023-02-24T01:14:52.263Z,8.80
2023-02-24T01:15:25.506Z,8.80
2023-02-24T01:16:02.129Z,8.80
2023-02-24T01:16:34.501Z,8.80
2023-02-24T01:17:09.420Z,8.70
2023-02-24T01:17:42.711Z,8.80
2023-02-24T01:18:14.515Z,8.80
2023-02-24T01:18:47.775Z,8.80
2023-02-24T01:19:23.025Z,8.80
2023-02-24T01:20:00.200Z,8.80
2023-02-24T01:20:32.971Z,8.80
2023-02-24T01:21:06.290Z,8.70
2023-02-24T01:21:38.390Z,8.70
2023-02-24T01:22:14.499Z,8.70
2023-02-24T01:22:50.035Z,8.70
2023-02-24T01:23:24.156Z,8.70
2023-02-24T01:23:55.950Z,8.70
2023-02-24T01:24:29.517Z,8.70
2023-02-24T01:25:01.326Z,8.60
2023-02-24T01:25:33.130Z,8.60
2023-02-24T01:26:06.190Z,8.60
2023-02-24T01:26:38.023Z,8.60
2023-02-24T01:27:11.518Z,8.60
2023-02-24T01:27:44.334Z,8.60
2023-02-24T01:28:16.129Z,8.60
2023-02-24T01:28:48.088Z,8.60
2023-02-24T01:29:22.474Z,8.60
2023-02-24T01:29:55.237Z,8.60
2023-02-24T01:30:27.036Z,8.70
2023-02-24T01:31:02.315Z,8.70
2023-02-24T01:31:35.220Z,8.70
2023-02-24T01:32:08.073Z,8.70
2023-02-24T01:32:40.725Z,8.70
2023-02-24T01:33:15.403Z,8.70
2023-02-24T01:33:47.555Z,8.70
2023-02-24T01:34:19.602Z,8.70
2023-02-24T01:34:53.453Z,8.70
2023-02-24T01:35:25.723Z,8.70
2023-02-24T01:35:57.561Z,8.70
2023-02-24T01:36:31.115Z,8.70
2023-02-24T01:37:02.945Z,8.70
2023-02-24T01:37:35.173Z,8.70
2023-02-24T01:38:07.057Z,8.70
2023-02-24T01:38:42.062Z,8.70
2023-02-24T01:39:13.884Z,8.70
2023-02-24T01:39:46.342Z,8.70
2023-02-24T01:40:21.467Z,8.70
2023-02-24T01:40:57.854Z,8.70
2023-02-24T01:41:30.892Z,8.70
2023-02-24T01:42:06.378Z,8.70
2023-02-24T01:42:41.167Z,8.70
2023-02-24T01:43:13.032Z,8.70
2023-02-24T01:44:02.057Z,8.60
2023-02-24T01:45:13.332Z,8.60
2023-02-24T01:45:46.173Z,8.50
2023-02-24T01:46:17.998Z,8.50
2023-02-24T01:46:52.154Z,8.50
2023-02-24T01:47:28.924Z,8.40
2023-02-24T01:48:05.192Z,8.40
2023-02-24T01:48:38.467Z,8.40
2023-02-24T01:49:15.834Z,8.40
2023-02-24T01:49:49.936Z,8.30
2023-02-24T01:50:26.374Z,8.30
2023-02-24T01:50:58.514Z,8.30
2023-02-24T01:51:34.472Z,8.20
2023-02-24T01:52:11.400Z,8.10
2023-02-24T01:52:46.255Z,8.10
2023-02-24T01:53:19.465Z,8.10
2023-02-24T01:53:52.452Z,8.10
2023-02-24T01:54:28.697Z,8.10
2023-02-24T01:55:04.122Z,8.00
2023-02-24T01:55:42.762Z,8.00
2023-02-24T01:56:16.024Z,8.00
2023-02-24T01:56:51.537Z,8.00
2023-02-24T01:57:26.372Z,8.10
2023-02-24T01:58:01.612Z,8.10
2023-02-24T01:58:34.110Z,8.10
2023-02-24T01:59:06.984Z,8.10
2023-02-24T01:59:39.170Z,8.10
2023-02-24T02:00:20.225Z,8.10
2023-02-24T02:00:53.444Z,8.00
2023-02-24T02:01:25.635Z,8.00
2023-02-24T02:02:06.752Z,8.00
2023-02-24T02:02:42.282Z,8.10
2023-02-24T02:03:25.288Z,8.00
2023-02-24T02:04:05.576Z,8.00
2023-02-24T02:04:42.562Z,8.00
2023-02-24T02:05:16.022Z,8.00
2023-02-24T02:05:48.491Z,8.00
2023-02-24T02:06:21.398Z,8.00
2023-02-24T02:06:53.977Z,8.00
2023-02-24T02:07:28.422Z,8.00
2023-02-24T02:08:01.821Z,8.00
2023-02-24T02:08:36.860Z,8.00
2023-02-24T02:09:10.000Z,8.00
2023-02-24T02:09:43.218Z,8.00
2023-02-24T02:10:15.136Z,8.00
2023-02-24T02:10:48.445Z,8.00
2023-02-24T02:11:20.601Z,8.00
2023-02-24T02:11:52.667Z,8.00
2023-02-24T02:12:24.644Z,8.00
2023-02-24T02:12:57.554Z,8.00
2023-02-24T02:13:30.809Z,8.00
2023-02-24T02:14:02.708Z,8.00
2023-02-24T02:14:36.616Z,8.00
2023-02-24T02:15:08.858Z,8.00
2023-02-24T02:15:49.154Z,8.00
2023-02-24T02:16:51.319Z,8.00
2023-02-24T02:17:31.095Z,8.00
2023-02-24T02:18:12.613Z,8.00
2023-02-24T02:18:56.121Z,8.00
2023-02-24T02:20:15.372Z,8.00
2023-02-24T02:21:18.802Z,8.00
2023-02-24T02:22:06.757Z,8.00
2023-02-24T02:23:08.675Z,8.00
2023-02-24T02:23:59.144Z,8.00
2023-02-24T02:24:48.407Z,8.10
2023-02-24T02:25:28.512Z,8.10
2023-02-24T02:26:21.609Z,8.10
2023-02-24T02:27:20.930Z,8.10
2023-02-24T02:28:12.760Z,8.10
2023-02-24T02:29:36.727Z,8.00
2023-02-24T02:30:45.106Z,8.10
2023-02-24T02:31:50.910Z,7.90
2023-02-24T02:32:53.552Z,8.00
2023-02-24T02:34:07.189Z,8.00
2023-02-24T02:34:50.868Z,8.00
2023-02-24T02:35:31.493Z,7.90
2023-02-24T02:36:13.428Z,8.00
2023-02-24T02:36:58.712Z,8.00
2023-02-24T02:37:34.281Z,8.00
2023-02-24T02:38:15.117Z,8.00
2023-02-24T02:38:54.664Z,8.00
2023-02-24T02:39:34.949Z,8.00
2023-02-24T02:40:18.646Z,8.00
2023-02-24T02:40:59.947Z,8.00
2023-02-24T02:41:37.478Z,8.00
2023-02-24T02:42:18.172Z,7.90
2023-02-24T02:42:58.973Z,7.90
2023-02-24T02:43:38.542Z,7.80
2023-02-24T02:44:15.405Z,7.80
2023-02-24T02:44:55.898Z,7.80
2023-02-24T02:45:36.090Z,7.80
2023-02-24T02:46:14.725Z,7.80
2023-02-24T02:46:51.496Z,7.80
2023-02-24T02:47:30.498Z,7.70
2023-02-24T02:48:06.811Z,7.80
2023-02-24T02:48:47.649Z,7.80
2023-02-24T02:49:25.754Z,7.70
2023-02-24T02:50:08.018Z,7.80
2023-02-24T02:50:45.955Z,7.70
2023-02-24T02:51:21.534Z,7.70
2023-02-24T02:51:58.772Z,7.70
2023-02-24T02:52:39.163Z,7.70
2023-02-24T02:53:14.671Z,7.70
2023-02-24T02:53:53.523Z,7.70
2023-02-24T02:54:31.220Z,7.80
2023-02-24T02:55:09.531Z,7.80
2023-02-24T02:55:46.949Z,7.80
2023-02-24T02:56:23.840Z,7.80
2023-02-24T02:57:01.441Z,7.80
2023-02-24T02:57:37.549Z,7.80
2023-02-24T02:58:16.088Z,7.80
2023-02-24T02:58:53.167Z,7.90
2023-02-24T02:59:30.249Z,7.80
2023-02-24T03:00:11.411Z,7.90
2023-02-24T03:00:51.305Z,7.80
2023-02-24T03:01:29.243Z,7.90
2023-02-24T03:02:11.538Z,7.90
2023-02-24T03:02:48.588Z,7.90
2023-02-24T03:03:21.466Z,7.90
2023-02-24T03:03:56.803Z,7.90
2023-02-24T03:04:30.174Z,7.90
2023-02-24T03:05:09.292Z,7.90
2023-02-24T03:05:46.886Z,7.90
2023-02-24T03:06:23.215Z,7.90
2023-02-24T03:07:02.388Z,7.90
2023-02-24T03:07:40.512Z,7.90
2023-02-24T03:08:15.504Z,7.90
2023-02-24T03:08:54.185Z,7.90
2023-02-24T03:09:29.332Z,7.90
2023-02-24T03:10:06.388Z,7.90
2023-02-24T03:10:44.666Z,7.90
2023-02-24T03:11:20.424Z,7.90
2023-02-24T03:11:59.518Z,7.90
2023-02-24T03:12:33.042Z,8.00
2023-02-24T03:13:10.157Z,8.00
2023-02-24T03:13:45.925Z,8.00
2023-02-24T03:14:23.937Z,8.00
2023-02-24T03:15:01.912Z,7.90
2023-02-24T03:15:35.087Z,8.00
2023-02-24T03:16:09.006Z,8.00
2023-02-24T03:16:45.958Z,8.00
2023-02-24T03:17:22.193Z,8.00
2023-02-24T03:17:58.080Z,8.00
2023-02-24T03:18:34.543Z,7.90
2023-02-24T03:19:08.973Z,7.90
2023-02-24T03:19:43.741Z,7.80
2023-02-24T03:20:23.206Z,7.80
2023-02-24T03:20:59.997Z,7.80
2023-02-24T03:21:36.719Z,7.80
2023-02-24T03:22:13.204Z,7.80
2023-02-24T03:22:49.960Z,7.80
2023-02-24T03:23:26.712Z,7.80
2023-02-24T03:24:00.357Z,7.80
2023-02-24T03:24:32.439Z,7.80
2023-02-24T03:25:06.427Z,7.80
2023-02-24T03:25:44.403Z,7.80
2023-02-24T03:26:23.237Z,7.80
2023-02-24T03:27:06.698Z,7.80
2023-02-24T03:27:48.332Z,7.80
2023-02-24T03:28:28.988Z,7.80
2023-02-24T03:29:07.846Z,7.80
2023-02-24T03:29:45.697Z,7.80
2023-02-24T03:30:22.021Z,7.80
2023-02-24T03:31:00.022Z,7.80
2023-02-24T03:31:40.667Z,7.80
2023-02-24T03:32:17.771Z,7.80
2023-02-24T03:32:55.769Z,7.80
2023-02-24T03:33:32.378Z,7.80
2023-02-24T03:34:09.567Z,7.70
2023-02-24T03:34:49.042Z,7.70
2023-02-24T03:35:25.155Z,7.80
2023-02-24T03:36:01.594Z,7.80
2023-02-24T03:36:33.663Z,7.80
2023-02-24T03:37:06.679Z,7.80
2023-02-24T03:37:38.613Z,7.80
2023-02-24T03:38:11.800Z,7.80
2023-02-24T03:38:44.031Z,7.90
2023-02-24T03:39:17.299Z,7.90
2023-02-24T03:39:51.280Z,7.90
2023-02-24T03:40:28.539Z,7.90
2023-02-24T03:41:01.359Z,7.90
2023-02-24T03:41:40.969Z,7.90
2023-02-24T03:42:17.901Z,7.90
2023-02-24T03:42:55.533Z,7.90
2023-02-24T03:43:30.322Z,7.90
2023-02-24T03:44:03.622Z,7.80
2023-02-24T03:44:36.800Z,7.80
2023-02-24T03:45:09.847Z,7.80
2023-02-24T03:45:42.011Z,7.80
2023-02-24T03:46:16.788Z,7.80
2023-02-24T03:46:49.122Z,7.80
2023-02-24T03:47:20.913Z,7.80
2023-02-24T03:47:55.967Z,7.90
2023-02-24T03:48:28.703Z,7.80
2023-02-24T03:49:13.523Z,7.90
2023-02-24T03:49:47.754Z,7.80
2023-02-24T03:50:22.048Z,7.80
2023-02-24T03:50:54.291Z,7.80
2023-02-24T03:51:27.590Z,7.80
2023-02-24T03:52:08.695Z,7.90
2023-02-24T03:52:47.191Z,7.90
2023-02-24T03:53:38.173Z,7.80
2023-02-24T03:54:22.743Z,7.80
2023-02-24T03:55:17.706Z,7.80
2023-02-24T03:56:00.476Z,7.80
2023-02-24T03:56:45.972Z,7.80
2023-02-24T03:57:25.919Z,7.80
2023-02-24T03:58:12.600Z,7.80
2023-02-24T03:58:59.488Z,7.80
2023-02-24T03:59:41.916Z,7.80
2023-02-24T04:00:22.517Z,7.70
2023-02-24T04:01:05.604Z,7.70
2023-02-24T04:01:47.954Z,7.70
2023-02-24T04:02:23.386Z,7.70
2023-02-24T04:03:03.349Z,7.70
2023-02-24T04:03:42.357Z,7.70
2023-02-24T04:04:21.254Z,7.70
2023-02-24T04:04:58.417Z,7.70
2023-02-24T04:05:34.189Z,7.70
2023-02-24T04:06:11.829Z,7.70
2023-02-24T04:06:47.024Z,7.70
2023-02-24T04:07:30.839Z,7.70
2023-02-24T04:08:04.463Z,7.80
2023-02-24T04:08:41.856Z,7.80
2023-02-24T04:09:23.474Z,7.80
2023-02-24T04:10:04.550Z,7.80
2023-02-24T04:10:41.283Z,7.80
2023-02-24T04:11:22.433Z,7.80
2023-02-24T04:11:58.526Z,7.90
2023-02-24T04:12:36.686Z,7.80
2023-02-24T04:13:18.748Z,7.90
2023-02-24T04:13:58.797Z,7.90
2023-02-24T04:14:37.184Z,7.90
2023-02-24T04:15:14.799Z,7.90
2023-02-24T04:15:51.797Z,7.90
2023-02-24T04:16:28.938Z,8.00
2023-02-24T04:17:07.905Z,8.00
2023-02-24T04:17:44.631Z,8.00
2023-02-24T04:18:20.264Z,8.00
2023-02-24T04:18:53.588Z,8.00
2023-02-24T04:19:29.094Z,8.00
2023-02-24T04:20:13.315Z,8.00
2023-02-24T04:20:49.258Z,8.00
2023-02-24T04:21:23.107Z,8.00
2023-02-24T04:21:56.984Z,8.00
2023-02-24T04:22:29.921Z,8.00
2023-02-24T04:23:08.534Z,7.90
2023-02-24T04:23:43.301Z,7.90
2023-02-24T04:24:17.885Z,7.90
2023-02-24T04:24:52.531Z,7.90
2023-02-24T04:25:26.862Z,7.90
2023-02-24T04:25:59.763Z,7.80
2023-02-24T04:26:32.079Z,7.90
2023-02-24T04:27:06.413Z,7.90
2023-02-24T04:27:39.393Z,7.90
2023-02-24T04:28:13.459Z,7.90
2023-02-24T04:28:48.575Z,7.90
2023-02-24T04:29:24.480Z,7.90
2023-02-24T04:30:00.024Z,7.90
2023-02-24T04:30:35.348Z,7.90
2023-02-24T04:31:17.600Z,8.00
2023-02-24T04:31:53.312Z,8.00
2023-02-24T04:32:29.077Z,8.00
2023-02-24T04:33:02.956Z,8.00
2023-02-24T04:33:35.482Z,8.00
2023-02-24T04:34:09.363Z,8.00
2023-02-24T04:34:43.171Z,8.00
2023-02-24T04:35:20.381Z,8.00
2023-02-24T04:35:53.241Z,8.00
2023-02-24T04:36:26.030Z,8.00
2023-02-24T04:36:59.244Z,8.00
2023-02-24T04:37:33.755Z,8.00
2023-02-24T04:38:06.784Z,7.90
2023-02-24T04:38:39.301Z,8.00
2023-02-24T04:39:12.984Z,8.00
2023-02-24T04:39:46.012Z,8.00
2023-02-24T04:40:21.936Z,8.00
2023-02-24T04:40:54.573Z,8.00
2023-02-24T04:41:27.343Z,7.90
2023-02-24T04:42:01.610Z,7.90
2023-02-24T04:42:33.506Z,7.90
2023-02-24T04:43:06.288Z,7.90
2023-02-24T04:43:38.315Z,7.90
2023-02-24T04:44:10.109Z,7.90
2023-02-24T04:44:42.779Z,7.90
2023-02-24T04:45:17.463Z,7.90
2023-02-24T04:45:51.436Z,7.80
2023-02-24T04:46:23.298Z,7.80
2023-02-24T04:46:56.960Z,7.80
2023-02-24T04:47:28.841Z,7.80
2023-02-24T04:48:02.803Z,7.70
2023-02-24T04:48:36.045Z,7.70
2023-02-24T04:49:07.850Z,7.80
2023-02-24T04:49:41.022Z,7.70
2023-02-24T04:50:22.683Z,7.80
2023-02-24T04:50:55.853Z,7.80
2023-02-24T04:51:31.638Z,7.70
2023-02-24T04:52:03.488Z,7.70
2023-02-24T04:52:35.304Z,7.60
2023-02-24T04:53:11.242Z,7.60
2023-02-24T04:53:43.010Z,7.60
2023-02-24T04:54:17.521Z,7.60
2023-02-24T04:54:50.388Z,7.60
2023-02-24T04:55:24.720Z,7.50
2023-02-24T04:55:56.584Z,7.50
2023-02-24T04:56:29.344Z,7.50
2023-02-24T04:57:01.210Z,7.50
2023-02-24T04:57:37.469Z,7.50
2023-02-24T04:58:12.210Z,7.50
2023-02-24T04:58:46.191Z,7.50
2023-02-24T04:59:18.991Z,7.40
2023-02-24T04:59:53.808Z,7.40
2023-02-24T05:00:26.988Z,7.30
2023-02-24T05:01:00.475Z,7.30
2023-02-24T05:01:32.318Z,7.30
2023-02-24T05:02:04.576Z,7.30
2023-02-24T05:02:38.260Z,7.30
2023-02-24T05:03:11.931Z,7.30
2023-02-24T05:03:45.078Z,7.30
2023-02-24T05:04:17.339Z,7.30
2023-02-24T05:04:49.764Z,7.30
2023-02-24T05:05:25.491Z,7.30
2023-02-24T05:06:01.089Z,7.30
2023-02-24T05:06:33.207Z,7.30
2023-02-24T05:07:05.087Z,7.30
2023-02-24T05:07:37.872Z,7.30
2023-02-24T05:08:10.692Z,7.30
2023-02-24T05:08:42.731Z,7.30
2023-02-24T05:09:18.033Z,7.30
2023-02-24T05:09:49.948Z,7.30
2023-02-24T05:10:22.472Z,7.30
2023-02-24T05:10:56.661Z,7.30
2023-02-24T05:11:34.689Z,7.40
2023-02-24T05:12:06.534Z,7.30
2023-02-24T05:12:40.331Z,7.40
2023-02-24T05:13:13.942Z,7.40
2023-02-24T05:13:47.254Z,7.40
2023-02-24T05:14:20.927Z,7.40
2023-02-24T05:14:52.796Z,7.40
2023-02-24T05:15:30.942Z,7.40
2023-02-24T05:16:06.581Z,7.40
2023-02-24T05:16:39.417Z,7.40
2023-02-24T05:17:13.790Z,7.40
2023-02-24T05:17:50.375Z,7.40
2023-02-24T05:18:23.764Z,7.40
2023-02-24T05:19:10.581Z,7.40
2023-02-24T05:20:01.055Z,7.40
2023-02-24T05:20:51.375Z,7.40
2023-02-24T05:21:38.326Z,7.40
2023-02-24T05:22:11.549Z,7.40
2023-02-24T05:22:43.339Z,7.40
2023-02-24T05:23:17.096Z,7.40
2023-02-24T05:23:51.695Z,7.40
2023-02-24T05:24:25.768Z,7.40
2023-02-24T05:24:57.627Z,7.40
2023-02-24T05:25:37.538Z,7.40
2023-02-24T05:26:11.055Z,7.30
2023-02-24T05:26:42.902Z,7.30
2023-02-24T05:27:17.141Z,7.30
2023-02-24T05:27:49.942Z,7.30
2023-02-24T05:28:23.108Z,7.30
2023-02-24T05:28:56.426Z,7.30
2023-02-24T05:29:32.289Z,7.30
2023-02-24T05:30:08.183Z,7.30
2023-02-24T05:30:40.032Z,7.30
2023-02-24T05:31:15.373Z,7.30
2023-02-24T05:31:47.341Z,7.30
2023-02-24T05:32:19.302Z,7.30
2023-02-24T05:32:54.083Z,7.30
2023-02-24T05:33:29.100Z,7.30
2023-02-24T05:34:03.654Z,7.30
2023-02-24T05:34:38.914Z,7.30
2023-02-24T05:35:10.947Z,7.20
2023-02-24T05:35:42.772Z,7.20
2023-02-24T05:36:18.182Z,7.20
2023-02-24T05:36:52.118Z,7.20
2023-02-24T05:37:23.944Z,7.20
2023-02-24T05:37:59.052Z,7.20
2023-02-24T05:38:31.037Z,7.20
2023-02-24T05:39:07.362Z,7.20
2023-02-24T05:39:39.250Z,7.20
2023-02-24T05:40:13.423Z,7.20
2023-02-24T05:40:47.906Z,7.20
2023-02-24T05:41:20.251Z,7.20
2023-02-24T05:41:54.638Z,7.20
2023-02-24T05:42:27.613Z,7.20
2023-02-24T05:43:04.084Z,7.20
2023-02-24T05:43:36.035Z,7.20
2023-02-24T05:44:10.596Z,7.30
2023-02-24T05:44:43.423Z,7.30
2023-02-24T05:45:15.447Z,7.20
2023-02-24T05:45:47.310Z,7.20
2023-02-24T05:46:20.853Z,7.20
2023-02-24T05:46:58.168Z,7.10
2023-02-24T05:47:31.895Z,7.10
2023-02-24T05:48:05.705Z,7.10
2023-02-24T05:48:37.603Z,7.20
2023-02-24T05:49:15.650Z,7.20
2023-02-24T05:49:47.940Z,7.20
2023-02-24T05:50:26.213Z,7.20
2023-02-24T05:50:59.550Z,7.20
2023-02-24T05:51:35.322Z,7.20
2023-02-24T05:52:11.171Z,7.20
2023-02-24T05:52:45.697Z,7.30
2023-02-24T05:53:18.989Z,7.30
2023-02-24T05:53:55.479Z,7.30
2023-02-24T05:54:29.336Z,7.30
2023-02-24T05:55:02.596Z,7.30
2023-02-24T05:55:36.470Z,7.30
2023-02-24T05:56:08.413Z,7.30
2023-02-24T05:56:43.603Z,7.30
2023-02-24T05:57:19.558Z,7.30
2023-02-24T05:57:53.098Z,7.40
2023-02-24T05:58:25.808Z,7.30
2023-02-24T05:59:02.786Z,7.30
2023-02-24T05:59:35.109Z,7.30
2023-02-24T06:00:16.202Z,7.30
2023-02-24T06:00:48.043Z,7.30
2023-02-24T06:01:20.379Z,7.30
2023-02-24T06:01:53.217Z,7.40
2023-02-24T06:02:29.271Z,7.40
2023-02-24T06:03:08.294Z,7.40
2023-02-24T06:03:46.486Z,7.30
2023-02-24T06:04:39.027Z,7.30
2023-02-24T06:05:25.264Z,7.30
2023-02-24T06:06:05.352Z,7.20
2023-02-24T06:06:39.167Z,7.20
2023-02-24T06:07:18.784Z,7.20
2023-02-24T06:07:51.974Z,7.20
2023-02-24T06:08:24.283Z,7.20
2023-02-24T06:08:57.705Z,7.20
2023-02-24T06:09:30.499Z,7.20
2023-02-24T06:10:04.694Z,7.20
2023-02-24T06:10:36.510Z,7.20
2023-02-24T06:11:10.537Z,7.20
2023-02-24T06:11:43.243Z,7.20
2023-02-24T06:12:15.756Z,7.20
2023-02-24T06:12:48.529Z,7.20
2023-02-24T06:13:20.374Z,7.20
2023-02-24T06:13:57.618Z,7.10
2023-02-24T06:14:30.396Z,7.20
2023-02-24T06:15:07.250Z,7.20
2023-02-24T06:15:41.660Z,7.20
2023-02-24T06:16:15.150Z,7.20
2023-02-24T06:16:47.126Z,7.20
2023-02-24T06:17:21.366Z,7.20
2023-02-24T06:17:56.402Z,7.30
2023-02-24T06:18:29.064Z,7.20
2023-02-24T06:19:02.117Z,7.30
2023-02-24T06:19:34.299Z,7.20
2023-02-24T06:20:13.791Z,7.30
2023-02-24T06:20:51.010Z,7.30
2023-02-24T06:21:23.061Z,7.40
2023-02-24T06:21:56.566Z,7.40
2023-02-24T06:22:29.772Z,7.40
2023-02-24T06:23:05.173Z,7.40
2023-02-24T06:23:37.008Z,7.40
2023-02-24T06:24:14.315Z,7.40
2023-02-24T06:24:48.698Z,7.40
2023-02-24T06:25:24.711Z,7.40
2023-02-24T06:26:02.105Z,7.40
2023-02-24T06:26:36.695Z,7.40
2023-02-24T06:27:10.328Z,7.50
2023-02-24T06:27:43.138Z,7.40
2023-02-24T06:28:15.014Z,7.40
2023-02-24T06:28:47.973Z,7.40
2023-02-24T06:29:20.794Z,7.40
2023-02-24T06:29:54.440Z,7.40
2023-02-24T06:30:27.179Z,7.40
2023-02-24T06:31:03.852Z,7.50
2023-02-24T06:31:35.989Z,7.50
2023-02-24T06:32:08.673Z,7.50
2023-02-24T06:32:41.879Z,7.50
2023-02-24T06:33:13.763Z,7.50
2023-02-24T06:33:45.550Z,7.50
2023-02-24T06:34:19.135Z,7.60
2023-02-24T06:34:51.913Z,7.60
2023-02-24T06:35:23.812Z,7.60
2023-02-24T06:35:56.584Z,7.60
2023-02-24T06:36:28.390Z,7.60
2023-02-24T06:37:00.336Z,7.70
2023-02-24T06:37:35.716Z,7.80
2023-02-24T06:38:07.569Z,7.80
2023-02-24T06:38:40.226Z,7.80
2023-02-24T06:39:14.373Z,7.80
2023-02-24T06:39:46.270Z,7.80
2023-02-24T06:40:18.376Z,7.80
2023-02-24T06:40:52.457Z,7.70
2023-02-24T06:41:24.347Z,7.70
2023-02-24T06:41:57.229Z,7.70
2023-02-24T06:42:30.049Z,7.70
2023-02-24T06:43:02.720Z,7.70
2023-02-24T06:43:35.461Z,7.60
2023-02-24T06:44:07.227Z,7.60
2023-02-24T06:44:41.706Z,7.60
2023-02-24T06:45:14.970Z,7.50
2023-02-24T06:45:47.768Z,7.50
2023-02-24T06:46:20.247Z,7.50
2023-02-24T06:46:52.078Z,7.50
2023-02-24T06:47:25.319Z,7.50
2023-02-24T06:47:57.942Z,7.50
2023-02-24T06:48:29.808Z,7.50
2023-02-24T06:49:02.876Z,7.40
2023-02-24T06:49:35.047Z,7.40
2023-02-24T06:50:07.365Z,7.40
2023-02-24T06:50:42.106Z,7.40
2023-02-24T06:51:15.735Z,7.40
2023-02-24T06:51:48.578Z,7.40
2023-02-24T06:52:21.349Z,7.40
2023-02-24T06:52:58.365Z,7.40
2023-02-24T06:53:31.679Z,7.40
2023-02-24T06:54:06.064Z,7.40
2023-02-24T06:54:37.950Z,7.40
2023-02-24T06:55:25.221Z,7.40
2023-02-24T06:55:58.206Z,7.40
2023-02-24T06:56:32.366Z,7.40
2023-02-24T06:57:04.601Z,7.40
2023-02-24T06:57:37.366Z,7.30
2023-02-24T06:58:16.412Z,7.30
2023-02-24T06:58:51.966Z,7.40
2023-02-24T06:59:28.374Z,7.40
2023-02-24T07:00:01.050Z,7.40
2023-02-24T07:00:39.141Z,7.40
2023-02-24T07:01:13.732Z,7.40
2023-02-24T07:01:46.993Z,7.40
2023-02-24T07:02:19.766Z,7.40
2023-02-24T07:02:51.599Z,7.40
2023-02-24T07:03:25.612Z,7.40
2023-02-24T07:04:18.617Z,7.50
2023-02-24T07:04:50.448Z,7.50
2023-02-24T07:05:24.099Z,7.50
2023-02-24T07:06:11.138Z,7.50
2023-02-24T07:06:45.310Z,7.50
2023-02-24T07:07:18.820Z,7.60
2023-02-24T07:07:51.162Z,7.60
2023-02-24T07:08:27.154Z,7.60
2023-02-24T07:09:00.199Z,7.60
2023-02-24T07:09:32.383Z,7.60
2023-02-24T07:10:05.781Z,7.60
2023-02-24T07:10:39.009Z,7.60
2023-02-24T07:11:11.491Z,7.60
2023-02-24T07:11:46.868Z,7.60
2023-02-24T07:12:20.935Z,7.70
2023-02-24T07:12:54.641Z,7.70
2023-02-24T07:13:29.754Z,7.70
2023-02-24T07:14:05.536Z,7.70
2023-02-24T07:14:38.155Z,7.70
2023-02-24T07:15:13.616Z,7.70
2023-02-24T07:15:49.284Z,7.70
2023-02-24T07:16:25.069Z,7.70
2023-02-24T07:16:58.152Z,7.70
2023-02-24T07:17:31.030Z,7.80
2023-02-24T07:18:03.829Z,7.70
2023-02-24T07:18:37.038Z,7.80
2023-02-24T07:19:13.808Z,7.70
2023-02-24T07:19:45.976Z,7.70
2023-02-24T07:20:25.311Z,7.70
2023-02-24T07:21:05.060Z,7.80
2023-02-24T07:21:39.526Z,7.80
2023-02-24T07:22:14.564Z,7.80
2023-02-24T07:22:47.802Z,7.80
2023-02-24T07:23:20.921Z,7.80
2023-02-24T07:23:58.927Z,7.80
2023-02-24T07:24:36.052Z,7.70
2023-02-24T07:25:09.448Z,7.70
2023-02-24T07:25:43.258Z,7.70
2023-02-24T07:26:16.988Z,7.70
2023-02-24T07:26:52.027Z,7.70
2023-02-24T07:27:23.833Z,7.70
2023-02-24T07:27:56.238Z,7.70
2023-02-24T07:28:28.999Z,7.70
2023-02-24T07:29:04.397Z,7.70
2023-02-24T07:29:37.577Z,7.70
2023-02-24T07:30:11.984Z,7.70
2023-02-24T07:30:43.973Z,7.70
2023-02-24T07:31:19.327Z,7.70
2023-02-24T07:31:54.978Z,7.70
2023-02-24T07:32:27.737Z,7.70
2023-02-24T07:32:59.831Z,7.90
2023-02-24T07:33:34.158Z,7.70
2023-02-24T07:34:06.316Z,7.70
2023-02-24T07:34:39.902Z,7.70
2023-02-24T07:35:14.407Z,7.70
2023-02-24T07:35:51.357Z,7.70
2023-02-24T07:36:24.889Z,7.70
2023-02-24T07:36:57.458Z,7.80
2023-02-24T07:37:31.426Z,7.80
2023-02-24T07:38:05.516Z,7.80
2023-02-24T07:38:38.064Z,7.80
2023-02-24T07:39:12.233Z,7.80
2023-02-24T07:39:44.189Z,7.90
2023-02-24T07:40:17.281Z,7.90
2023-02-24T07:40:50.860Z,7.90
2023-02-24T07:41:23.793Z,8.00
2023-02-24T07:41:56.962Z,8.00
2023-02-24T07:42:32.696Z,8.00
2023-02-24T07:43:06.298Z,8.20
2023-02-24T07:43:39.551Z,8.10
2023-02-24T07:44:13.605Z,8.20
2023-02-24T07:44:48.930Z,8.20
2023-02-24T07:45:21.848Z,8.30
2023-02-24T07:45:53.752Z,8.30
2023-02-24T07:46:27.921Z,8.30
2023-02-24T07:47:00.146Z,8.30
2023-02-24T07:47:33.724Z,8.30
2023-02-24T07:48:05.555Z,8.30
2023-02-24T07:48:38.017Z,8.30
2023-02-24T07:49:14.727Z,8.40
2023-02-24T07:49:46.550Z,8.40
2023-02-24T07:50:18.631Z,8.50
2023-02-24T07:50:52.872Z,8.50
2023-02-24T07:51:27.765Z,8.50
2023-02-24T07:52:00.013Z,8.50
2023-02-24T07:52:32.818Z,8.50
2023-02-24T07:53:05.683Z,8.60
2023-02-24T07:53:40.240Z,8.60